createdAt,value
2018-06-12T00:00:18.015Z,8.08
2018-06-12T00:00:51.568Z,8.58
2018-06-12T00:01:25.094Z,7.97
2018-06-12T00:01:58.652Z,7.78
2018-06-12T00:02:32.792Z,7.75
2018-06-12T00:03:06.437Z,7.70
2018-06-12T00:03:40.075Z,8.38
2018-06-12T00:04:14.371Z,7.55
2018-06-12T00:04:48.445Z,7.62
2018-06-12T00:05:21.996Z,8.07
2018-06-12T00:05:56.279Z,7.78
2018-06-12T00:06:29.871Z,8.63
2018-06-12T00:07:03.472Z,8.05
2018-06-12T00:07:36.697Z,8.43
2018-06-12T00:08:10.305Z,8.48
2018-06-12T00:08:43.841Z,7.40
2018-06-12T00:09:17.379Z,7.75
2018-06-12T00:09:50.968Z,7.33
2018-06-12T00:10:24.495Z,8.55
2018-06-12T00:10:58.063Z,8.63
2018-06-12T00:11:31.654Z,8.00
2018-06-12T00:12:05.896Z,7.75
2018-06-12T00:12:39.488Z,8.03
2018-06-12T00:13:13.024Z,7.85
2018-06-12T00:13:46.943Z,7.97
2018-06-12T00:14:20.521Z,8.63
2018-06-12T00:14:54.125Z,7.17
2018-06-12T00:15:28.327Z,7.90
2018-06-12T00:16:02.517Z,7.87
2018-06-12T00:16:36.099Z,7.55
2018-06-12T00:17:09.801Z,8.40
2018-06-12T00:17:43.400Z,8.00
2018-06-12T00:18:17.011Z,7.60
2018-06-12T00:18:50.515Z,8.00
2018-06-12T00:19:24.494Z,8.58
2018-06-12T00:19:58.148Z,7.75
2018-06-12T00:20:32.390Z,7.78
2018-06-12T00:21:05.981Z,7.92
2018-06-12T00:21:39.692Z,8.08
2018-06-12T00:22:13.227Z,8.40
2018-06-12T00:22:46.865Z,8.43
2018-06-12T00:23:20.493Z,8.27
2018-06-12T00:23:54.080Z,8.38
2018-06-12T00:24:27.682Z,7.92
2018-06-12T00:25:01.313Z,8.60
2018-06-12T00:25:34.943Z,9.05
2018-06-12T00:26:08.609Z,7.95
2018-06-12T00:26:43.452Z,8.20
2018-06-12T00:27:16.982Z,8.00
2018-06-12T00:27:50.547Z,8.78
2018-06-12T00:28:24.188Z,7.83
2018-06-12T00:28:58.468Z,8.20
2018-06-12T00:29:32.096Z,8.23
2018-06-12T00:30:05.751Z,8.58
2018-06-12T00:30:39.564Z,8.13
2018-06-12T00:31:13.207Z,8.70
2018-06-12T00:31:47.394Z,8.48
2018-06-12T00:32:21.655Z,9.00
2018-06-12T00:32:56.512Z,8.50
2018-06-12T00:33:30.118Z,8.83
2018-06-12T00:34:03.743Z,7.78
2018-06-12T00:34:37.265Z,8.08
2018-06-12T00:35:11.721Z,8.93
2018-06-12T00:35:45.393Z,8.60
2018-06-12T00:36:18.997Z,8.68
2018-06-12T00:36:52.592Z,8.33
2018-06-12T00:37:26.199Z,8.88
2018-06-12T00:37:59.430Z,9.10
2018-06-12T00:38:33.083Z,8.90
2018-06-12T00:39:08.327Z,8.75
2018-06-12T00:39:42.756Z,8.88
2018-06-12T00:40:16.399Z,8.55
2018-06-12T00:40:50.375Z,8.95
2018-06-12T00:41:23.938Z,9.23
2018-06-12T00:41:58.720Z,8.93
2018-06-12T00:42:32.266Z,8.35
2018-06-12T00:43:05.854Z,9.65
2018-06-12T00:43:39.466Z,8.75
2018-06-12T00:44:13.351Z,8.23
2018-06-12T00:44:46.984Z,8.38
2018-06-12T00:45:20.936Z,9.13
2018-06-12T00:45:55.220Z,8.90
2018-06-12T00:46:28.821Z,9.55
2018-06-12T00:47:02.411Z,8.93
2018-06-12T00:47:36.348Z,8.63
2018-06-12T00:48:10.071Z,9.08
2018-06-12T00:48:44.352Z,8.55
2018-06-12T00:49:18.282Z,9.03
2018-06-12T00:49:51.841Z,8.80
2018-06-12T00:50:25.482Z,8.78
2018-06-12T00:50:59.363Z,9.33
2018-06-12T00:51:32.919Z,9.13
2018-06-12T00:52:09.430Z,8.90
2018-06-12T00:52:43.065Z,9.20
2018-06-12T00:53:16.605Z,9.00
2018-06-12T00:53:50.168Z,8.73
2018-06-12T00:54:23.737Z,9.48
2018-06-12T00:54:57.347Z,9.30
2018-06-12T00:55:30.854Z,9.23
2018-06-12T00:56:05.941Z,10.13
2018-06-12T00:56:50.658Z,9.28
2018-06-12T00:57:24.268Z,9.50
2018-06-12T00:57:57.838Z,9.63
2018-06-12T00:58:31.448Z,9.00
2018-06-12T00:59:05.988Z,8.90
2018-06-12T00:59:39.527Z,9.70
2018-06-12T01:00:13.209Z,9.63
2018-06-12T01:00:46.770Z,9.73
2018-06-12T01:01:20.940Z,9.55
2018-06-12T01:01:54.927Z,9.33
2018-06-12T01:02:28.492Z,9.75
2018-06-12T01:03:02.785Z,9.60
2018-06-12T01:03:36.432Z,9.45
2018-06-12T01:04:10.003Z,9.40
2018-06-12T01:04:43.570Z,9.88
2018-06-12T01:05:18.422Z,9.98
2018-06-12T01:05:52.687Z,9.43
2018-06-12T01:06:27.236Z,9.88
2018-06-12T01:07:00.822Z,9.28
2018-06-12T01:07:34.466Z,9.65
2018-06-12T01:08:08.046Z,10.35
2018-06-12T01:08:41.711Z,9.38
2018-06-12T01:09:15.306Z,9.08
2018-06-12T01:09:49.774Z,10.15
2018-06-12T01:10:23.368Z,8.88
2018-06-12T01:10:58.827Z,9.23
2018-06-12T01:11:32.490Z,9.80
2018-06-12T01:12:07.099Z,9.55
2018-06-12T01:12:40.658Z,9.80
2018-06-12T01:13:14.305Z,10.60
2018-06-12T01:13:47.851Z,10.18
2018-06-12T01:14:22.000Z,10.23
2018-06-12T01:14:56.347Z,9.73
2018-06-12T01:15:30.673Z,9.90
2018-06-12T01:16:04.293Z,9.48
2018-06-12T01:16:37.926Z,10.35
2018-06-12T01:17:11.483Z,9.90
2018-06-12T01:17:45.903Z,9.63
2018-06-12T01:18:19.448Z,9.33
2018-06-12T01:18:53.054Z,9.95
2018-06-12T01:19:27.283Z,9.50
2018-06-12T01:20:00.869Z,9.85
2018-06-12T01:20:35.024Z,9.10
2018-06-12T01:21:09.457Z,10.00
2018-06-12T01:21:42.998Z,10.03
2018-06-12T01:22:16.575Z,9.58
2018-06-12T01:22:50.153Z,9.78
2018-06-12T01:23:23.758Z,9.17
2018-06-12T01:23:57.386Z,9.40
2018-06-12T01:24:31.552Z,9.78
2018-06-12T01:25:04.941Z,9.90
2018-06-12T01:25:39.643Z,9.43
2018-06-12T01:26:13.195Z,9.68
2018-06-12T01:26:46.847Z,9.90
2018-06-12T01:27:20.388Z,9.87
2018-06-12T01:27:54.057Z,10.20
2018-06-12T01:28:27.649Z,9.33
2018-06-12T01:29:01.244Z,9.85
2018-06-12T01:29:34.842Z,10.08
2018-06-12T01:30:08.544Z,10.08
2018-06-12T01:30:43.072Z,9.88
2018-06-12T01:31:16.663Z,9.60
2018-06-12T01:31:50.224Z,9.70
2018-06-12T01:32:23.816Z,9.48
2018-06-12T01:32:57.506Z,9.38
2018-06-12T01:33:31.118Z,9.03
2018-06-12T01:34:04.668Z,10.00
2018-06-12T01:34:38.198Z,9.50
2018-06-12T01:35:11.715Z,9.63
2018-06-12T01:35:45.290Z,9.45
2018-06-12T01:36:18.864Z,9.10
2018-06-12T01:36:52.559Z,9.65
2018-06-12T01:37:26.084Z,9.80
2018-06-12T01:38:00.278Z,9.63
2018-06-12T01:38:34.056Z,9.28
2018-06-12T01:39:08.493Z,9.45
2018-06-12T01:39:42.148Z,10.05
2018-06-12T01:40:17.833Z,9.63
2018-06-12T01:40:52.088Z,9.60
2018-06-12T01:41:25.637Z,9.77
2018-06-12T01:41:59.823Z,9.30
2018-06-12T01:42:34.378Z,10.03
2018-06-12T01:43:07.970Z,9.28
2018-06-12T01:43:43.127Z,9.35
2018-06-12T01:44:16.767Z,9.08
2018-06-12T01:44:50.335Z,9.53
2018-06-12T01:45:23.893Z,10.40
2018-06-12T01:45:57.527Z,9.65
2018-06-12T01:46:31.151Z,9.88
2018-06-12T01:47:05.111Z,10.30
2018-06-12T01:47:38.722Z,10.15
2018-06-12T01:48:12.305Z,9.98
2018-06-12T01:48:46.552Z,10.18
2018-06-12T01:49:20.150Z,10.03
2018-06-12T01:49:53.736Z,10.32
2018-06-12T01:50:27.268Z,10.80
2018-06-12T01:51:00.844Z,10.50
2018-06-12T01:51:34.460Z,10.88
2018-06-12T01:52:08.791Z,10.93
2018-06-12T01:52:43.739Z,10.78
2018-06-12T01:53:17.397Z,9.90
2018-06-12T01:53:51.500Z,10.08
2018-06-12T01:54:25.048Z,9.83
2018-06-12T01:54:58.898Z,10.38
2018-06-12T01:55:33.106Z,10.33
2018-06-12T01:56:06.657Z,10.40
2018-06-12T01:56:41.659Z,10.43
2018-06-12T01:57:16.271Z,10.95
2018-06-12T01:57:49.805Z,10.08
2018-06-12T01:58:24.408Z,10.50
2018-06-12T01:58:57.967Z,10.72
2018-06-12T01:59:31.588Z,10.97
2018-06-12T02:00:05.461Z,10.82
2018-06-12T02:00:39.294Z,10.85
2018-06-12T02:01:12.864Z,10.65
2018-06-12T02:01:46.458Z,11.22
2018-06-12T02:02:20.946Z,11.20
2018-06-12T02:02:54.492Z,11.30
2018-06-12T02:03:28.045Z,12.00
2018-06-12T02:04:01.872Z,11.20
2018-06-12T02:04:35.438Z,10.90
2018-06-12T02:05:09.068Z,10.82
2018-06-12T02:05:42.727Z,11.38
2018-06-12T02:06:18.437Z,10.13
2018-06-12T02:06:52.046Z,10.35
2018-06-12T02:07:25.633Z,10.77
2018-06-12T02:07:59.164Z,11.05
2018-06-12T02:08:32.828Z,11.03
2018-06-12T02:09:07.924Z,11.12
2018-06-12T02:09:41.170Z,12.05
2018-06-12T02:10:14.733Z,11.25
2018-06-12T02:10:48.357Z,11.65
2018-06-12T02:11:21.977Z,11.27
2018-06-12T02:11:55.580Z,11.45
2018-06-12T02:12:29.130Z,11.70
2018-06-12T02:13:03.174Z,11.80
2018-06-12T02:13:36.730Z,11.18
2018-06-12T02:14:11.964Z,11.97
2018-06-12T02:14:46.756Z,12.40
2018-06-12T02:15:21.032Z,12.20
2018-06-12T02:15:54.861Z,11.70
2018-06-12T02:16:28.418Z,11.73
2018-06-12T02:17:02.383Z,11.53
2018-06-12T02:17:36.528Z,12.28
2018-06-12T02:18:10.659Z,10.98
2018-06-12T02:18:45.598Z,11.70
2018-06-12T02:19:19.225Z,12.63
2018-06-12T02:19:52.841Z,12.37
2018-06-12T02:20:27.116Z,12.47
2018-06-12T02:21:00.756Z,12.88
2018-06-12T02:21:34.728Z,13.38
2018-06-12T02:22:09.195Z,13.30
2018-06-12T02:22:42.773Z,13.62
2018-06-12T02:23:16.846Z,13.43
2018-06-12T02:23:50.415Z,13.00
2018-06-12T02:24:24.059Z,13.38
2018-06-12T02:24:58.357Z,12.43
2018-06-12T02:25:31.908Z,12.83
2018-06-12T02:26:06.090Z,12.43
2018-06-12T02:26:39.779Z,13.03
2018-06-12T02:27:13.031Z,13.60
2018-06-12T02:27:47.221Z,12.65
2018-06-12T02:28:20.805Z,13.60
2018-06-12T02:28:54.943Z,13.58
2018-06-12T02:29:28.535Z,13.60
2018-06-12T02:30:02.193Z,13.55
2018-06-12T02:30:37.158Z,14.10
2018-06-12T02:31:11.348Z,13.78
2018-06-12T02:31:44.917Z,14.85
2018-06-12T02:32:18.574Z,14.70
2018-06-12T02:32:52.157Z,14.60
2018-06-12T02:33:25.733Z,15.13
2018-06-12T02:33:59.346Z,15.30
2018-06-12T02:34:33.013Z,14.80
2018-06-12T02:35:07.672Z,14.93
2018-06-12T02:35:41.869Z,14.60
2018-06-12T02:36:16.730Z,15.03
2018-06-12T02:36:50.318Z,15.83
2018-06-12T02:37:23.897Z,15.60
2018-06-12T02:37:57.663Z,16.52
2018-06-12T02:38:31.215Z,15.48
2018-06-12T02:39:07.155Z,15.83
2018-06-12T02:39:41.570Z,15.43
2018-06-12T02:40:15.579Z,14.40
2018-06-12T02:40:49.196Z,15.00
2018-06-12T02:41:24.207Z,15.13
2018-06-12T02:41:57.861Z,15.05
2018-06-12T02:42:31.452Z,15.08
2018-06-12T02:43:05.636Z,14.85
2018-06-12T02:43:39.245Z,14.93
2018-06-12T02:44:13.327Z,15.55
2018-06-12T02:44:46.892Z,14.80
2018-06-12T02:45:20.648Z,15.43
2018-06-12T02:45:54.340Z,14.73
2018-06-12T02:46:29.364Z,14.98
2018-06-12T02:47:03.654Z,14.73
2018-06-12T02:47:38.019Z,15.58
2018-06-12T02:48:11.821Z,15.60
2018-06-12T02:48:45.465Z,15.60
2018-06-12T02:49:19.702Z,15.48
2018-06-12T02:49:53.257Z,15.08
2018-06-12T02:50:27.202Z,16.17
2018-06-12T02:51:00.849Z,15.78
2018-06-12T02:51:34.104Z,17.30
2018-06-12T02:52:07.722Z,16.55
2018-06-12T02:52:41.320Z,17.65
2018-06-12T02:53:15.436Z,17.02
2018-06-12T02:53:50.209Z,16.48
2018-06-12T02:54:23.856Z,17.27
2018-06-12T02:54:57.424Z,17.65
2018-06-12T02:55:30.985Z,17.53
2018-06-12T02:56:04.568Z,17.62
2018-06-12T02:56:38.163Z,17.23
2018-06-12T02:57:12.526Z,17.00
2018-06-12T02:57:46.062Z,16.37
2018-06-12T02:58:19.637Z,17.50
2018-06-12T02:58:53.191Z,17.55
2018-06-12T02:59:26.732Z,17.43
2018-06-12T03:00:00.381Z,18.20
2018-06-12T03:00:34.543Z,18.62
2018-06-12T03:01:08.186Z,18.57
2018-06-12T03:01:41.768Z,19.25
2018-06-12T03:02:15.035Z,18.40
2018-06-12T03:02:48.658Z,19.23
2018-06-12T03:03:22.295Z,18.62
2018-06-12T03:03:55.907Z,18.23
2018-06-12T03:04:29.545Z,18.20
2018-06-12T03:05:03.131Z,18.67
2018-06-12T03:05:37.975Z,17.95
2018-06-12T03:06:12.829Z,19.20
2018-06-12T03:06:46.440Z,18.80
2018-06-12T03:07:20.006Z,20.10
2018-06-12T03:07:53.505Z,18.40
2018-06-12T03:08:27.118Z,18.80
2018-06-12T03:09:00.731Z,20.52
2018-06-12T03:09:35.011Z,20.03
2018-06-12T03:10:08.590Z,19.70
2018-06-12T03:10:42.150Z,19.12
2018-06-12T03:11:15.391Z,20.57
2018-06-12T03:11:48.911Z,20.57
2018-06-12T03:12:22.512Z,19.67
2018-06-12T03:12:56.411Z,20.30
2018-06-12T03:13:29.979Z,20.97
2018-06-12T03:14:03.596Z,20.35
2018-06-12T03:14:37.209Z,20.77
2018-06-12T03:15:12.272Z,20.43
2018-06-12T03:15:46.592Z,21.30
2018-06-12T03:16:20.203Z,20.70
2018-06-12T03:16:53.820Z,21.42
2018-06-12T03:17:28.096Z,20.80
2018-06-12T03:18:02.447Z,21.48
2018-06-12T03:18:35.988Z,21.62
2018-06-12T03:19:09.571Z,21.35
2018-06-12T03:19:43.163Z,21.45
2018-06-12T03:20:16.884Z,21.07
2018-06-12T03:20:50.523Z,21.00
2018-06-12T03:21:24.144Z,22.03
2018-06-12T03:21:57.701Z,22.15
2018-06-12T03:22:31.272Z,22.10
2018-06-12T03:23:05.526Z,22.20
2018-06-12T03:23:40.393Z,21.77
2018-06-12T03:24:14.594Z,22.85
2018-06-12T03:24:48.104Z,24.60
2018-06-12T03:25:23.283Z,24.10
2018-06-12T03:26:00.138Z,24.02
2018-06-12T03:26:34.345Z,24.95
2018-06-12T03:27:07.908Z,24.52
2018-06-12T03:27:41.553Z,23.32
2018-06-12T03:28:16.027Z,25.82
2018-06-12T03:28:49.601Z,24.70
2018-06-12T03:29:23.791Z,25.23
2018-06-12T03:29:58.193Z,24.32
2018-06-12T03:30:32.508Z,24.95
2018-06-12T03:31:06.187Z,26.27
2018-06-12T03:31:40.472Z,25.77
2018-06-12T03:32:14.141Z,25.17
2018-06-12T03:32:48.200Z,25.15
2018-06-12T03:33:21.788Z,23.87
2018-06-12T03:33:56.082Z,25.80
2018-06-12T03:34:30.384Z,25.30
2018-06-12T03:35:04.011Z,26.02
2018-06-12T03:35:38.878Z,25.60
2018-06-12T03:36:12.453Z,26.25
2018-06-12T03:36:45.999Z,25.32
2018-06-12T03:37:19.654Z,28.27
2018-06-12T03:37:54.597Z,26.57
2018-06-12T03:38:28.185Z,27.48
2018-06-12T03:39:01.744Z,28.73
2018-06-12T03:39:35.334Z,27.07
2018-06-12T03:40:08.955Z,27.05
2018-06-12T03:40:42.553Z,28.05
2018-06-12T03:41:16.124Z,27.27
2018-06-12T03:41:50.596Z,27.62
2018-06-12T03:42:24.655Z,26.42
2018-06-12T03:42:59.440Z,26.45
2018-06-12T03:43:33.121Z,25.73
2018-06-12T03:44:07.211Z,26.48
2018-06-12T03:44:41.365Z,25.65
2018-06-12T03:45:16.724Z,25.76
2018-06-12T03:45:50.310Z,25.80
2018-06-12T03:46:23.960Z,26.15
2018-06-12T03:46:58.543Z,26.85
2018-06-12T03:47:32.885Z,27.63
2018-06-12T03:48:06.449Z,27.40
2018-06-12T03:48:40.752Z,26.87
2018-06-12T03:49:14.896Z,27.70
2018-06-12T03:49:49.185Z,27.58
2018-06-12T03:50:22.473Z,27.10
2018-06-12T03:50:56.739Z,28.77
2018-06-12T03:51:30.567Z,27.22
2018-06-12T03:52:04.211Z,28.07
2018-06-12T03:52:37.756Z,28.17
2018-06-12T03:53:11.313Z,28.55
2018-06-12T03:53:44.875Z,27.85
2018-06-12T03:54:18.418Z,29.02
2018-06-12T03:54:52.464Z,28.73
2018-06-12T03:55:26.022Z,29.63
2018-06-12T03:55:59.668Z,29.48
2018-06-12T03:56:33.375Z,29.57
2018-06-12T03:57:06.896Z,29.72
2018-06-12T03:57:40.439Z,30.27
2018-06-12T03:58:14.259Z,28.20
2018-06-12T03:58:48.352Z,29.98
2018-06-12T03:59:21.940Z,29.30
2018-06-12T03:59:55.501Z,29.60
2018-06-12T04:00:29.823Z,27.90
2018-06-12T04:01:03.390Z,29.87
2018-06-12T04:01:37.463Z,28.32
2018-06-12T04:02:11.028Z,30.55
2018-06-12T04:02:44.580Z,30.30
2018-06-12T04:03:19.267Z,29.07
2018-06-12T04:03:52.908Z,30.25
2018-06-12T04:04:28.303Z,29.70
2018-06-12T04:05:01.832Z,29.27
2018-06-12T04:05:36.400Z,28.87
2018-06-12T04:06:10.026Z,29.65
2018-06-12T04:06:43.624Z,28.83
2018-06-12T04:07:19.106Z,28.57
2018-06-12T04:07:52.695Z,28.57
2018-06-12T04:08:26.296Z,28.60
2018-06-12T04:09:00.610Z,29.52
2018-06-12T04:09:34.747Z,28.97
2018-06-12T04:10:08.336Z,29.85
2018-06-12T04:10:41.968Z,28.02
2018-06-12T04:11:15.796Z,30.05
2018-06-12T04:11:49.349Z,28.10
2018-06-12T04:12:23.512Z,29.87
2018-06-12T04:12:57.125Z,29.60
2018-06-12T04:13:30.440Z,29.75
2018-06-12T04:14:04.043Z,30.08
2018-06-12T04:14:38.184Z,29.75
2018-06-12T04:15:12.525Z,30.08
2018-06-12T04:15:46.045Z,29.82
2018-06-12T04:16:20.212Z,29.77
2018-06-12T04:16:53.442Z,28.92
2018-06-12T04:17:27.088Z,29.37
2018-06-12T04:18:00.933Z,29.55
2018-06-12T04:18:34.542Z,29.45
2018-06-12T04:19:08.620Z,30.25
2018-06-12T04:19:42.711Z,30.85
2018-06-12T04:20:16.647Z,30.08
2018-06-12T04:20:50.247Z,31.27
2018-06-12T04:21:23.846Z,30.80
2018-06-12T04:21:57.961Z,30.52
2018-06-12T04:22:32.272Z,31.62
2018-06-12T04:23:05.836Z,29.63
2018-06-12T04:23:39.378Z,30.75
2018-06-12T04:24:12.932Z,30.05
2018-06-12T04:24:46.536Z,30.10
2018-06-12T04:25:20.117Z,29.85
2018-06-12T04:25:54.671Z,30.60
2018-06-12T04:26:28.312Z,31.23
2018-06-12T04:27:01.946Z,29.40
2018-06-12T04:27:35.488Z,30.35
2018-06-12T04:28:09.046Z,31.00
2018-06-12T04:28:42.583Z,30.52
2018-06-12T04:29:16.779Z,30.10
2018-06-12T04:29:50.398Z,30.40
2018-06-12T04:30:23.975Z,30.12
2018-06-12T04:30:57.523Z,30.17
2018-06-12T04:31:31.079Z,30.40
2018-06-12T04:32:04.649Z,29.55
2018-06-12T04:32:38.190Z,29.45
2018-06-12T04:33:11.755Z,30.60
2018-06-12T04:33:45.381Z,30.62
2018-06-12T04:34:19.011Z,30.65
2018-06-12T04:34:52.686Z,29.60
2018-06-12T04:35:26.905Z,29.85
2018-06-12T04:36:00.517Z,31.05
2018-06-12T04:36:36.029Z,29.25
2018-06-12T04:37:09.598Z,31.50
2018-06-12T04:37:43.210Z,32.17
2018-06-12T04:38:16.815Z,32.10
2018-06-12T04:38:50.418Z,32.08
2018-06-12T04:39:24.048Z,32.53
2018-06-12T04:39:57.640Z,32.15
2018-06-12T04:40:31.841Z,32.03
2018-06-12T04:41:05.420Z,31.27
2018-06-12T04:41:38.995Z,30.82
2018-06-12T04:42:13.444Z,31.15
2018-06-12T04:42:47.769Z,30.48
2018-06-12T04:43:21.360Z,30.45
2018-06-12T04:43:56.174Z,30.72
2018-06-12T04:44:29.761Z,31.27
2018-06-12T04:45:03.398Z,32.95
2018-06-12T04:45:37.080Z,33.13
2018-06-12T04:46:10.689Z,30.80
2018-06-12T04:46:44.888Z,30.92
2018-06-12T04:47:19.076Z,31.48
2018-06-12T04:47:53.270Z,32.10
2018-06-12T04:48:27.106Z,31.77
2018-06-12T04:49:00.681Z,30.77
2018-06-12T04:49:34.251Z,31.07
2018-06-12T04:50:07.860Z,30.68
2018-06-12T04:50:42.235Z,31.55
2018-06-12T04:51:15.750Z,31.15
2018-06-12T04:51:49.336Z,31.27
2018-06-12T04:52:22.913Z,30.17
2018-06-12T04:52:57.786Z,29.95
2018-06-12T04:53:31.346Z,32.07
2018-06-12T04:54:04.883Z,30.97
2018-06-12T04:54:38.605Z,30.37
2018-06-12T04:55:13.725Z,30.48
2018-06-12T04:55:46.968Z,31.97
2018-06-12T04:56:21.222Z,30.88
2018-06-12T04:56:54.832Z,32.15
2018-06-12T04:57:29.211Z,32.17
2018-06-12T04:58:03.721Z,31.37
2018-06-12T04:58:37.268Z,31.00
2018-06-12T04:59:10.941Z,31.55
2018-06-12T04:59:44.775Z,31.00
2018-06-12T05:00:18.816Z,31.45
2018-06-12T05:00:52.797Z,30.52
2018-06-12T05:01:26.968Z,30.17
2018-06-12T05:02:00.275Z,30.77
2018-06-12T05:02:33.838Z,31.02
2018-06-12T05:03:08.017Z,31.17
2018-06-12T05:03:42.983Z,30.15
2018-06-12T05:04:16.656Z,30.92
2018-06-12T05:04:50.303Z,30.95
2018-06-12T05:05:25.659Z,30.93
2018-06-12T05:05:58.874Z,31.73
2018-06-12T05:06:33.196Z,31.62
2018-06-12T05:07:06.817Z,33.42
2018-06-12T05:07:41.083Z,35.05
2018-06-12T05:08:14.677Z,35.48
2018-06-12T05:08:48.255Z,36.68
2018-06-12T05:09:27.605Z,39.57
2018-06-12T05:10:01.480Z,56.37
2018-06-12T05:10:35.085Z,37.05
2018-06-12T05:11:08.721Z,38.28
2018-06-12T05:11:42.288Z,37.33
2018-06-12T05:12:15.593Z,37.80
2018-06-12T05:12:49.586Z,37.33
2018-06-12T05:13:23.841Z,37.00
2018-06-12T05:13:57.411Z,37.10
2018-06-12T05:14:31.039Z,38.35
2018-06-12T05:15:04.723Z,39.35
2018-06-12T05:15:39.010Z,38.98
2018-06-12T05:16:13.195Z,49.15
2018-06-12T05:16:47.548Z,49.25
2018-06-12T05:17:21.100Z,42.00
2018-06-12T05:17:54.722Z,49.45
2018-06-12T05:18:28.263Z,47.20
2018-06-12T05:19:01.864Z,45.15
2018-06-12T05:19:36.085Z,48.60
2018-06-12T05:20:09.630Z,45.75
2018-06-12T05:20:43.196Z,44.67
2018-06-12T05:21:16.747Z,42.50
2018-06-12T05:21:50.384Z,58.25
2018-06-12T05:22:24.044Z,42.93
2018-06-12T05:22:57.707Z,41.30
2018-06-12T05:23:31.358Z,40.77
2018-06-12T05:24:05.607Z,40.55
2018-06-12T05:24:40.381Z,38.65
2018-06-12T05:25:17.316Z,38.55
2018-06-12T05:25:50.930Z,40.05
2018-06-12T05:26:25.568Z,37.05
2018-06-12T05:26:59.150Z,38.70
2018-06-12T05:27:32.503Z,39.93
2018-06-12T05:28:06.093Z,75.70
2018-06-12T05:28:39.875Z,55.20
2018-06-12T05:29:14.103Z,55.08
2018-06-12T05:29:47.761Z,86.65
2018-06-12T05:30:22.512Z,50.88
2018-06-12T05:30:56.964Z,42.90
2018-06-12T05:31:30.545Z,58.95
2018-06-12T05:32:04.814Z,46.85
2018-06-12T05:32:38.394Z,40.98
2018-06-12T05:33:12.333Z,38.67
2018-06-12T05:33:46.248Z,39.23
2018-06-12T05:34:19.518Z,38.28
2018-06-12T05:34:53.049Z,37.03
2018-06-12T05:35:27.245Z,38.83
2018-06-12T05:36:00.828Z,36.65
2018-06-12T05:36:34.471Z,36.23
2018-06-12T05:37:08.610Z,36.98
2018-06-12T05:37:42.174Z,37.88
2018-06-12T05:38:15.434Z,42.08
2018-06-12T05:38:50.278Z,64.50
2018-06-12T05:39:24.478Z,44.33
2018-06-12T05:39:57.731Z,40.83
2018-06-12T05:40:31.428Z,43.92
2018-06-12T05:41:05.065Z,43.35
2018-06-12T05:41:39.530Z,68.42
2018-06-12T05:42:14.563Z,37.53
2018-06-12T05:42:48.824Z,39.03
2018-06-12T05:43:22.347Z,40.30
2018-06-12T05:43:55.928Z,39.10
2018-06-12T05:44:29.547Z,36.05
2018-06-12T05:45:10.298Z,36.42
2018-06-12T05:45:44.220Z,36.68
2018-06-12T05:46:20.998Z,37.85
2018-06-12T05:46:54.685Z,37.30
2018-06-12T05:47:28.968Z,36.27
2018-06-12T05:48:02.624Z,36.35
2018-06-12T05:48:36.166Z,36.17
2018-06-12T05:49:10.173Z,35.30
2018-06-12T05:49:43.744Z,35.35
2018-06-12T05:50:17.374Z,36.10
2018-06-12T05:50:52.057Z,35.25
2018-06-12T05:51:27.018Z,36.00
2018-06-12T05:52:00.586Z,36.65
2018-06-12T05:52:34.804Z,34.65
2018-06-12T05:53:08.776Z,34.15
2018-06-12T05:53:42.559Z,35.85
2018-06-12T05:54:16.326Z,35.80
2018-06-12T05:54:49.944Z,36.30
2018-06-12T05:55:24.248Z,36.00
2018-06-12T05:55:57.855Z,36.15
2018-06-12T05:56:31.815Z,35.08
2018-06-12T05:57:06.811Z,35.50
2018-06-12T05:57:41.191Z,36.80
2018-06-12T05:58:16.166Z,36.15
2018-06-12T05:58:50.928Z,36.38
2018-06-12T05:59:24.680Z,36.77
2018-06-12T05:59:59.076Z,35.50
2018-06-12T06:00:32.654Z,37.70
2018-06-12T06:01:07.508Z,36.20
2018-06-12T06:01:42.712Z,36.20
2018-06-12T06:02:16.815Z,37.25
2018-06-12T06:02:50.392Z,35.92
2018-06-12T06:03:25.271Z,36.93
2018-06-12T06:03:59.602Z,35.35
2018-06-12T06:04:35.250Z,36.28
2018-06-12T06:05:08.895Z,38.48
2018-06-12T06:05:43.086Z,37.60
2018-06-12T06:06:16.693Z,37.13
2018-06-12T06:06:50.297Z,37.10
2018-06-12T06:07:24.245Z,37.30
2018-06-12T06:07:59.558Z,36.88
2018-06-12T06:08:33.104Z,36.45
2018-06-12T06:09:07.938Z,36.42
2018-06-12T06:09:41.594Z,36.40
2018-06-12T06:10:16.498Z,36.98
2018-06-12T06:10:51.031Z,35.95
2018-06-12T06:11:25.491Z,36.83
2018-06-12T06:12:00.200Z,36.83
2018-06-12T06:12:33.789Z,36.48
2018-06-12T06:13:08.661Z,35.73
2018-06-12T06:13:41.995Z,35.92
2018-06-12T06:14:18.386Z,35.30
2018-06-12T06:14:51.913Z,35.40
2018-06-12T06:15:25.612Z,36.65
2018-06-12T06:15:59.704Z,35.00
2018-06-12T06:16:33.271Z,34.83
2018-06-12T06:17:07.963Z,36.77
2018-06-12T06:17:41.791Z,36.80
2018-06-12T06:18:16.856Z,36.83
2018-06-12T06:18:50.388Z,36.00
2018-06-12T06:19:24.727Z,35.83
2018-06-12T06:19:58.347Z,35.48
2018-06-12T06:20:32.652Z,36.40
2018-06-12T06:21:06.389Z,36.15
2018-06-12T06:21:40.147Z,35.43
2018-06-12T06:22:13.713Z,36.73
2018-06-12T06:22:47.835Z,36.35
2018-06-12T06:23:21.388Z,35.97
2018-06-12T06:23:55.475Z,36.70
2018-06-12T06:24:29.048Z,36.95
2018-06-12T06:25:02.588Z,35.90
2018-06-12T06:25:36.276Z,37.17
2018-06-12T06:26:09.960Z,37.28
2018-06-12T06:26:43.534Z,35.70
2018-06-12T06:27:17.124Z,35.40
2018-06-12T06:27:50.754Z,36.25
2018-06-12T06:28:24.357Z,36.68
2018-06-12T06:28:57.875Z,35.48
2018-06-12T06:29:31.437Z,36.07
2018-06-12T06:30:05.538Z,35.68
2018-06-12T06:30:39.703Z,34.65
2018-06-12T06:31:13.925Z,36.98
2018-06-12T06:31:47.547Z,35.17
2018-06-12T06:32:22.222Z,37.95
2018-06-12T06:32:56.403Z,34.88
2018-06-12T06:33:29.966Z,35.40
2018-06-12T06:34:03.571Z,35.25
2018-06-12T06:34:36.811Z,35.28
2018-06-12T06:35:10.403Z,34.60
2018-06-12T06:35:43.920Z,35.23
2018-06-12T06:36:18.266Z,33.18
2018-06-12T06:36:51.846Z,35.10
2018-06-12T06:37:25.407Z,31.93
2018-06-12T06:37:58.980Z,34.10
2018-06-12T06:38:32.563Z,33.95
2018-06-12T06:39:07.759Z,33.67
2018-06-12T06:39:41.961Z,33.25
2018-06-12T06:40:15.526Z,32.98
2018-06-12T06:40:49.762Z,32.08
2018-06-12T06:41:23.300Z,31.87
2018-06-12T06:41:56.928Z,33.45
2018-06-12T06:42:31.248Z,31.97
2018-06-12T06:43:05.419Z,33.33
2018-06-12T06:43:39.019Z,32.10
2018-06-12T06:44:12.610Z,33.28
2018-06-12T06:44:46.172Z,31.93
2018-06-12T06:45:19.804Z,31.80
2018-06-12T06:45:53.412Z,31.62
2018-06-12T06:46:27.596Z,33.00
2018-06-12T06:47:01.131Z,32.35
2018-06-12T06:47:34.732Z,32.38
2018-06-12T06:48:09.407Z,32.25
2018-06-12T06:48:42.940Z,31.93
2018-06-12T06:49:16.518Z,32.45
2018-06-12T06:49:50.102Z,30.65
2018-06-12T06:50:23.613Z,31.75
2018-06-12T06:50:57.176Z,31.37
2018-06-12T06:51:30.753Z,31.93
2018-06-12T06:52:04.456Z,33.13
2018-06-12T06:52:38.032Z,32.55
2018-06-12T06:53:12.302Z,31.77
2018-06-12T06:53:45.912Z,32.08
2018-06-12T06:54:19.449Z,32.08
2018-06-12T06:54:53.021Z,30.68
2018-06-12T06:55:26.648Z,31.07
2018-06-12T06:56:00.206Z,30.17
2018-06-12T06:56:33.774Z,29.20
2018-06-12T06:57:07.303Z,28.47
2018-06-12T06:57:40.930Z,28.35
2018-06-12T06:58:14.440Z,28.07
2018-06-12T06:58:48.687Z,27.32
2018-06-12T06:59:22.873Z,26.50
2018-06-12T06:59:56.484Z,26.93
2018-06-12T07:00:29.997Z,25.45
2018-06-12T07:01:03.614Z,26.42
2018-06-12T07:01:37.160Z,26.57
2018-06-12T07:02:10.721Z,28.95
2018-06-12T07:02:44.286Z,25.72
2018-06-12T07:03:17.864Z,27.17
2018-06-12T07:03:51.413Z,25.72
2018-06-12T07:04:25.011Z,26.37
2018-06-12T07:04:58.588Z,25.48
2018-06-12T07:05:32.695Z,24.67
2018-06-12T07:06:06.292Z,22.95
2018-06-12T07:06:39.838Z,23.02
2018-06-12T07:07:13.032Z,23.47
2018-06-12T07:07:47.563Z,23.32
2018-06-12T07:08:21.164Z,21.85
2018-06-12T07:08:55.530Z,23.25
2018-06-12T07:09:29.107Z,23.17
2018-06-12T07:10:02.299Z,22.95
2018-06-12T07:10:35.878Z,21.97
2018-06-12T07:11:10.884Z,22.48
2018-06-12T07:11:44.412Z,21.68
2018-06-12T07:12:17.931Z,22.55
2018-06-12T07:12:51.772Z,21.68
2018-06-12T07:13:25.356Z,22.37
2018-06-12T07:13:58.916Z,21.93
2018-06-12T07:14:32.457Z,22.30
2018-06-12T07:15:06.203Z,20.77
2018-06-12T07:15:39.756Z,22.75
2018-06-12T07:16:13.351Z,21.65
2018-06-12T07:16:46.926Z,21.48
2018-06-12T07:17:21.989Z,21.48
2018-06-12T07:17:55.491Z,20.92
2018-06-12T07:18:29.032Z,22.05
2018-06-12T07:19:02.617Z,20.43
2018-06-12T07:19:36.196Z,21.70
2018-06-12T07:20:09.959Z,20.68